createdAt,value
2019-02-11T00:01:33.612Z,94091.84
2019-02-11T00:04:03.597Z,94142.36
2019-02-11T00:06:33.499Z,94110.52
2019-02-11T00:09:04.905Z,94120.62
2019-02-11T00:11:35.862Z,94134.71
2019-02-11T00:14:05.887Z,94158.40
2019-02-11T00:16:35.785Z,94134.75
2019-02-11T00:19:05.660Z,94150.13
2019-02-11T00:21:35.637Z,94171.57
2019-02-11T00:24:05.587Z,94154.16
2019-02-11T00:26:35.481Z,94150.18
2019-02-11T00:29:05.512Z,94095.43
2019-02-11T00:31:35.454Z,94136.16
2019-02-11T00:34:05.451Z,94154.27
2019-02-11T00:36:35.397Z,94136.56
2019-02-11T00:39:07.026Z,94131.67
2019-02-11T00:41:36.936Z,94137.42
2019-02-11T00:44:06.887Z,94137.12
2019-02-11T00:46:36.833Z,94131.38
2019-02-11T00:49:06.688Z,94164.59
2019-02-11T00:51:36.574Z,94160.97
2019-02-11T00:54:06.472Z,94160.45
2019-02-11T00:56:36.332Z,94170.72
2019-02-11T00:59:06.246Z,94161.94
2019-02-11T01:01:36.184Z,94150.27
2019-02-11T01:04:06.160Z,94155.34
2019-02-11T01:06:36.074Z,94159.33
2019-02-11T01:09:06.881Z,94152.81
2019-02-11T01:11:37.747Z,94144.19
2019-02-11T01:14:07.629Z,94160.32
2019-02-11T01:16:37.698Z,94159.66
2019-02-11T01:19:07.642Z,94163.21
2019-02-11T01:21:37.559Z,94174.68
2019-02-11T01:24:07.538Z,94171.05
2019-02-11T01:26:37.371Z,94175.47
2019-02-11T01:29:07.265Z,94189.90
2019-02-11T01:31:37.170Z,94198.47
2019-02-11T01:34:07.113Z,94190.81
2019-02-11T01:36:37.107Z,94180.05
2019-02-11T01:39:07.539Z,94178.31
2019-02-11T01:41:37.533Z,94175.16
2019-02-11T01:44:07.358Z,94169.15
2019-02-11T01:46:37.269Z,94191.13
2019-02-11T01:49:07.156Z,94182.84
2019-02-11T01:51:37.057Z,94170.47
2019-02-11T01:54:06.877Z,94181.02
2019-02-11T01:56:38.233Z,94177.62
2019-02-11T01:59:08.282Z,94195.42
2019-02-11T02:01:38.320Z,94200.92
2019-02-11T02:04:08.325Z,94200.75
2019-02-11T02:06:38.227Z,94191.95
2019-02-11T02:09:08.602Z,94204.81
2019-02-11T02:11:38.464Z,94198.12
2019-02-11T02:14:08.382Z,94216.62
2019-02-11T02:16:38.390Z,94199.64
2019-02-11T02:19:08.355Z,94193.13
2019-02-11T02:21:38.275Z,94202.48
2019-02-11T02:24:08.278Z,94201.75
2019-02-11T02:26:38.189Z,94198.39
2019-02-11T02:29:08.194Z,94199.95
2019-02-11T02:31:39.167Z,94207.17
2019-02-11T02:34:09.085Z,94214.69
2019-02-11T02:36:39.026Z,94218.27
2019-02-11T02:39:09.148Z,94225.44
2019-02-11T02:41:39.088Z,94226.27
2019-02-11T02:44:09.113Z,94229.38
2019-02-11T02:46:38.964Z,94223.52
2019-02-11T02:49:09.056Z,94234.45
2019-02-11T02:51:38.904Z,94245.42
2019-02-11T02:54:08.794Z,94243.06
2019-02-11T02:56:38.791Z,94236.97
2019-02-11T02:59:08.765Z,94234.64
2019-02-11T03:01:38.671Z,94238.48
2019-02-11T03:04:08.523Z,94232.19
2019-02-11T03:22:49.679Z,94240.81
2019-02-11T03:25:19.590Z,94250.34
2019-02-11T03:27:49.523Z,94250.83
2019-02-11T03:30:19.489Z,94267.63
2019-02-11T03:32:49.431Z,94302.73
2019-02-11T03:35:19.457Z,94268.10
2019-02-11T03:37:49.375Z,94295.20
2019-02-11T03:40:19.329Z,94290.05
2019-02-11T03:42:49.187Z,94285.94
2019-02-11T03:45:19.125Z,94298.27
2019-02-11T03:47:49.051Z,94292.67
2019-02-11T03:50:19.040Z,94290.51
2019-02-11T03:52:48.992Z,94314.27
2019-02-11T03:55:18.875Z,94319.00
2019-02-11T03:57:48.910Z,94302.20
2019-02-11T04:00:19.012Z,94307.30
2019-02-11T04:02:48.973Z,94313.94
2019-02-11T04:05:18.801Z,94342.27
2019-02-11T04:07:48.696Z,94332.61
2019-02-11T04:10:18.724Z,94344.95
2019-02-11T04:12:48.740Z,94347.16
2019-02-11T04:15:18.618Z,94348.58
2019-02-11T04:17:48.547Z,94358.66
2019-02-11T04:20:18.585Z,94370.52
2019-02-11T04:22:48.414Z,94362.73
2019-02-11T04:25:18.347Z,94366.86
2019-02-11T04:27:48.172Z,94361.61
2019-02-11T04:30:18.036Z,94371.14
2019-02-11T04:32:48.822Z,94379.38
2019-02-11T04:35:18.722Z,94379.20
2019-02-11T04:37:48.611Z,94386.47
2019-02-11T04:40:18.553Z,94386.66
2019-02-11T04:42:48.553Z,94373.01
2019-02-11T04:45:18.784Z,94391.54
2019-02-11T04:47:48.595Z,94378.25
2019-02-11T04:50:19.618Z,94390.60
2019-02-11T04:52:49.591Z,94376.79
2019-02-11T04:55:19.491Z,94395.17
2019-02-11T04:57:49.358Z,94397.08
2019-02-11T05:00:19.378Z,94408.64
2019-02-11T05:02:49.255Z,94406.56
2019-02-11T05:05:19.069Z,94450.55
2019-02-11T05:07:48.930Z,94424.42
2019-02-11T05:10:18.741Z,94407.67
2019-02-11T05:12:48.710Z,94409.25
2019-02-11T05:15:18.600Z,94415.58
2019-02-11T05:17:48.533Z,94428.87
2019-02-11T05:20:18.548Z,94418.73
2019-02-11T05:22:48.412Z,94448.03
2019-02-11T05:25:18.362Z,94429.68
2019-02-11T05:27:48.266Z,94424.47
2019-02-11T05:30:18.321Z,94439.18
2019-02-11T05:32:48.217Z,94440.77
2019-02-11T05:35:18.220Z,94453.32
2019-02-11T05:37:48.132Z,94460.28
2019-02-11T05:40:18.112Z,94488.45
2019-02-11T05:42:48.115Z,94460.92
2019-02-11T05:45:18.061Z,94465.52
2019-02-11T05:47:47.997Z,94480.06
2019-02-11T05:50:17.922Z,94494.67
2019-02-11T05:52:47.824Z,94476.61
2019-02-11T05:55:17.725Z,94487.25
2019-02-11T05:57:47.608Z,94478.25
2019-02-11T06:00:18.649Z,94474.17
2019-02-11T06:02:48.498Z,94510.21
2019-02-11T06:05:18.463Z,94496.93
2019-02-11T06:07:48.469Z,94502.80
2019-02-11T06:10:18.566Z,94509.73
2019-02-11T06:12:48.608Z,94518.11
2019-02-11T06:15:18.457Z,94514.33
2019-02-11T06:17:48.398Z,94531.70
2019-02-11T06:20:18.321Z,94527.42
2019-02-11T06:22:48.285Z,94530.42
2019-02-11T06:25:18.117Z,94541.31
2019-02-11T06:27:48.108Z,94539.88
2019-02-11T06:30:18.014Z,94552.21
2019-02-11T06:32:47.947Z,94564.02
2019-02-11T06:35:17.805Z,94568.91
2019-02-11T06:37:47.717Z,94565.12
2019-02-11T06:40:18.604Z,94585.77
2019-02-11T06:42:48.556Z,94596.50
2019-02-11T06:45:18.472Z,94597.93
2019-02-11T06:47:48.297Z,94592.87
2019-02-11T06:50:18.238Z,94602.34
2019-02-11T06:52:48.158Z,94603.94
2019-02-11T06:55:18.045Z,94606.28
2019-02-11T06:57:47.936Z,94615.83
2019-02-11T07:00:19.897Z,94627.50
2019-02-11T07:02:49.869Z,94631.95
2019-02-11T07:05:19.827Z,94646.17
2019-02-11T07:07:49.699Z,94647.62
2019-02-11T07:10:19.642Z,94662.50
2019-02-11T07:12:49.465Z,94676.23
2019-02-11T07:15:22.254Z,94670.34
2019-02-11T07:17:50.974Z,94679.14
2019-02-11T07:20:20.901Z,94684.05
2019-02-11T07:22:50.711Z,94692.53
2019-02-11T07:25:20.789Z,94696.47
2019-02-11T07:27:50.669Z,94696.14
2019-02-11T07:30:20.724Z,94717.79
2019-02-11T07:32:50.630Z,94717.90
2019-02-11T07:35:20.557Z,94727.86
2019-02-11T07:37:50.515Z,94725.00
2019-02-11T07:40:20.947Z,94723.24
2019-02-11T07:43:09.782Z,94723.09
2019-02-11T07:45:47.896Z,94737.02
2019-02-11T07:48:19.112Z,94737.77
2019-02-11T07:50:49.103Z,94753.56
2019-02-11T07:53:19.917Z,94772.61
2019-02-11T07:55:49.869Z,94758.72
2019-02-11T07:58:21.272Z,94765.51
2019-02-11T08:00:51.169Z,94754.94
2019-02-11T08:03:21.155Z,94783.83
2019-02-11T08:05:51.206Z,94769.22
2019-02-11T08:08:21.130Z,94771.92
2019-02-11T08:10:51.084Z,94770.01
2019-02-11T08:13:21.038Z,94785.34
2019-02-11T08:15:50.882Z,94789.25
2019-02-11T08:18:20.865Z,94781.84
2019-02-11T08:20:51.782Z,94788.34
2019-02-11T08:23:21.741Z,94793.95
2019-02-11T08:25:51.552Z,94794.48
2019-02-11T08:28:21.499Z,94800.00
2019-02-11T08:30:51.394Z,94816.78
2019-02-11T08:33:21.419Z,94821.19
2019-02-11T08:35:51.238Z,94820.24
2019-02-11T08:38:21.143Z,94829.66
2019-02-11T08:40:51.045Z,94844.06
2019-02-11T08:43:20.949Z,94837.74
2019-02-11T08:45:50.834Z,94846.15
2019-02-11T08:48:20.786Z,94855.58
2019-02-11T08:50:50.674Z,94854.02
2019-02-11T08:53:21.521Z,94865.72
2019-02-11T08:55:51.435Z,94876.11
2019-02-11T08:58:22.480Z,94874.67
2019-02-11T09:00:52.411Z,94894.02
2019-02-11T09:03:22.365Z,94873.73
2019-02-11T09:05:52.364Z,94877.70
2019-02-11T09:08:22.308Z,94893.50
2019-02-11T09:10:52.240Z,94918.02
2019-02-11T09:13:22.072Z,94920.27
2019-02-11T09:15:55.337Z,94923.55
2019-02-11T09:18:23.699Z,94932.76
2019-02-11T09:20:53.734Z,94943.42
2019-02-11T09:23:23.596Z,94939.26
2019-02-11T09:25:53.634Z,94944.78
2019-02-11T09:28:23.647Z,94943.56
2019-02-11T09:30:53.706Z,94948.55
2019-02-11T09:33:23.606Z,94948.37
2019-02-11T09:35:53.546Z,94955.81
2019-02-11T09:38:23.570Z,94958.35
2019-02-11T09:40:53.590Z,94964.33
2019-02-11T09:43:23.627Z,94967.89
2019-02-11T09:45:53.667Z,94960.55
2019-02-11T09:48:23.658Z,94978.32
2019-02-11T09:50:54.066Z,94977.81
2019-02-11T09:53:23.962Z,94980.98
2019-02-11T09:55:53.906Z,94979.58
2019-02-11T09:58:23.839Z,94990.75
2019-02-11T10:00:53.830Z,94997.09
2019-02-11T10:03:23.724Z,94996.34
2019-02-11T10:05:53.688Z,95007.00
2019-02-11T10:08:23.703Z,95000.45
2019-02-11T10:10:54.581Z,95022.30
2019-02-11T10:13:24.604Z,95012.09
2019-02-11T10:15:54.442Z,95025.25
2019-02-11T10:18:24.396Z,95029.46
2019-02-11T10:20:55.588Z,95044.77
2019-02-11T10:23:25.464Z,95044.03
2019-02-11T10:25:55.362Z,95046.31
2019-02-11T10:28:25.344Z,95054.70
2019-02-11T10:30:55.252Z,95052.55
2019-02-11T10:33:25.193Z,95062.50
2019-02-11T10:35:55.158Z,95063.50
2019-02-11T10:38:25.140Z,95064.23
2019-02-11T10:40:55.038Z,95077.59
2019-02-11T10:43:25.062Z,95081.52
2019-02-11T10:45:55.041Z,95071.47
2019-02-11T10:48:25.479Z,95082.73
2019-02-11T10:50:55.645Z,95086.36
2019-02-11T10:53:25.597Z,95090.89
2019-02-11T10:55:55.602Z,95091.92
2019-02-11T10:58:25.899Z,95097.31
2019-02-11T11:00:56.927Z,95100.34
2019-02-11T11:03:29.146Z,95101.99
2019-02-11T11:05:59.053Z,95102.17
2019-02-11T11:08:29.089Z,95102.31
2019-02-11T11:10:59.009Z,95112.88
2019-02-11T11:13:28.959Z,95115.60
2019-02-11T11:15:58.946Z,95118.73
2019-02-11T11:18:28.914Z,95124.44
2019-02-11T11:20:58.816Z,95138.67
2019-02-11T11:23:30.943Z,95144.91
2019-02-11T11:26:00.861Z,95139.73
2019-02-11T11:28:30.809Z,95136.19
2019-02-11T11:31:00.843Z,95148.77
2019-02-11T11:33:30.958Z,95148.46
2019-02-11T11:36:00.855Z,95144.73
2019-02-11T11:38:30.756Z,95152.05
2019-02-11T11:41:00.805Z,95163.75
2019-02-11T11:43:30.958Z,95159.91
2019-02-11T11:46:00.861Z,95170.16
2019-02-11T11:48:30.801Z,95169.81
2019-02-11T11:51:00.695Z,95175.22
2019-02-11T11:53:30.580Z,95180.80
2019-02-11T11:56:02.309Z,95197.17
2019-02-11T11:58:32.242Z,95190.59
2019-02-11T12:01:02.241Z,95191.08
2019-02-11T12:03:32.114Z,95198.11
2019-02-11T12:06:01.947Z,95204.78
2019-02-11T12:08:32.077Z,95204.77
2019-02-11T12:11:02.088Z,95205.02
2019-02-11T12:13:32.159Z,95206.84
2019-02-11T12:16:02.047Z,95228.05
2019-02-11T12:18:32.003Z,95248.78
2019-02-11T12:21:01.985Z,95226.57
2019-02-11T12:23:31.941Z,95234.09
2019-02-11T12:26:02.020Z,95228.65
2019-02-11T12:28:31.928Z,95242.94
2019-02-11T12:31:01.961Z,95240.66
2019-02-11T12:33:31.796Z,95249.05
2019-02-11T12:36:01.861Z,95246.27
2019-02-11T12:38:31.764Z,95245.81
2019-02-11T12:41:01.701Z,95244.13
2019-02-11T12:43:32.045Z,95257.23
2019-02-11T12:46:02.036Z,95262.97
2019-02-11T12:48:31.908Z,95265.13
2019-02-11T12:51:01.886Z,95277.25
2019-02-11T12:53:31.786Z,95278.38
2019-02-11T12:56:02.846Z,95281.60
2019-02-11T12:58:33.084Z,95274.72
2019-02-11T13:01:03.422Z,95295.27
2019-02-11T13:03:33.332Z,95296.00
2019-02-11T13:06:03.379Z,95298.80
2019-02-11T13:08:34.887Z,95301.55
2019-02-11T13:11:05.213Z,95305.74
2019-02-11T13:13:35.345Z,95302.55
2019-02-11T13:16:06.439Z,95319.10
2019-02-11T13:18:39.582Z,95320.77
2019-02-11T13:21:08.139Z,95342.36
2019-02-11T13:23:38.080Z,95327.94
2019-02-11T13:26:08.018Z,95331.53
2019-02-11T13:28:37.974Z,95329.39
2019-02-11T13:31:07.949Z,95331.13
2019-02-11T13:33:37.891Z,95341.22
2019-02-11T13:36:07.999Z,95341.30
2019-02-11T13:38:38.858Z,95340.84
2019-02-11T13:41:08.749Z,95357.79
2019-02-11T13:43:38.739Z,95357.05
2019-02-11T13:46:08.667Z,95351.80
2019-02-11T13:48:38.706Z,95358.44
2019-02-11T13:51:08.685Z,95367.09
2019-02-11T13:53:38.575Z,95361.58
2019-02-11T13:56:08.927Z,95362.44
2019-02-11T13:58:38.885Z,95365.48
2019-02-11T14:01:11.298Z,95376.38
2019-02-11T14:03:41.281Z,95384.30
2019-02-11T14:06:11.283Z,95390.77
2019-02-11T14:08:41.218Z,95384.31
2019-02-11T14:11:12.423Z,95390.68
2019-02-11T14:13:42.451Z,95400.79
2019-02-11T14:16:12.471Z,95400.39
2019-02-11T14:18:42.572Z,95398.23
2019-02-11T14:21:12.540Z,95410.61
2019-02-11T14:23:42.562Z,95412.73
2019-02-11T14:26:12.567Z,95415.06
2019-02-11T14:28:42.542Z,95418.27
2019-02-11T14:31:13.082Z,95422.75
2019-02-11T14:33:43.428Z,95417.16
2019-02-11T14:36:13.838Z,95439.95
2019-02-11T14:38:44.109Z,95437.63
2019-02-11T14:41:14.239Z,95435.33
2019-02-11T14:43:44.299Z,95432.38
2019-02-11T14:46:14.437Z,95439.59
2019-02-11T14:48:44.467Z,95452.67
2019-02-11T14:51:14.485Z,95456.80
2019-02-11T14:53:44.491Z,95458.06
2019-02-11T14:56:14.903Z,95463.66
2019-02-11T14:58:44.810Z,95465.31
2019-02-11T15:01:14.750Z,95460.45
2019-02-11T15:03:44.675Z,95468.98
2019-02-11T15:06:14.630Z,95473.67
2019-02-11T15:08:44.484Z,95485.59
2019-02-11T15:11:14.448Z,95479.23
2019-02-11T15:13:44.280Z,95490.13
2019-02-11T15:16:15.325Z,95499.59
2019-02-11T15:18:45.156Z,95496.67
2019-02-11T15:21:15.199Z,95506.64
2019-02-11T15:23:45.256Z,95498.33
2019-02-11T15:26:15.163Z,95505.19
2019-02-11T15:28:45.078Z,95518.28
2019-02-11T15:31:14.911Z,95521.41
2019-02-11T15:33:44.893Z,95533.32
2019-02-11T15:36:14.799Z,95530.92
2019-02-11T15:38:44.942Z,95535.88
2019-02-11T15:41:14.920Z,95539.59
2019-02-11T15:43:44.860Z,95537.33
2019-02-11T15:46:14.757Z,95544.38
2019-02-11T15:48:44.773Z,95551.63
2019-02-11T15:51:14.599Z,95561.59
2019-02-11T15:53:44.592Z,95552.02
2019-02-11T15:56:14.573Z,95561.41
2019-02-11T15:58:44.556Z,95566.80
2019-02-11T16:01:14.434Z,95579.03
2019-02-11T16:03:44.362Z,95571.32
2019-02-11T16:06:14.218Z,95577.69
2019-02-11T16:08:44.198Z,95577.64
2019-02-11T16:11:14.146Z,95587.29
2019-02-11T16:13:44.069Z,95584.63
2019-02-11T16:16:14.008Z,95596.14
2019-02-11T16:18:51.653Z,95596.94
2019-02-11T16:21:15.548Z,95609.45
2019-02-11T16:23:45.468Z,95604.83
2019-02-11T16:26:15.523Z,95611.02
2019-02-11T16:28:45.366Z,95618.02
2019-02-11T16:31:15.228Z,95627.66
2019-02-11T16:33:45.122Z,95629.98
2019-02-11T16:36:15.144Z,95645.61
2019-02-11T16:38:44.993Z,95637.69
2019-02-11T16:41:14.969Z,95646.28
2019-02-11T16:43:44.902Z,95645.61
2019-02-11T16:46:18.680Z,95645.27
2019-02-11T16:48:48.599Z,95649.95
2019-02-11T16:51:18.542Z,95649.66
2019-02-11T16:53:48.480Z,95643.88
2019-02-11T16:56:18.404Z,95631.63
2019-02-11T16:58:48.461Z,95628.17
2019-02-11T17:01:18.789Z,95636.17
2019-02-11T17:03:48.723Z,95650.55
2019-02-11T17:06:18.537Z,95653.74
2019-02-11T17:08:48.498Z,95656.86
2019-02-11T17:11:18.469Z,95661.58
2019-02-11T17:13:48.419Z,95663.86
2019-02-11T17:16:18.679Z,95672.50
2019-02-11T17:18:48.556Z,95693.53
2019-02-11T17:21:18.400Z,95692.61
2019-02-11T17:23:48.279Z,95699.81
2019-02-11T17:26:18.267Z,95694.05
2019-02-11T17:28:48.289Z,95701.25
2019-02-11T17:31:18.814Z,95701.25
2019-02-11T17:33:48.768Z,95714.57
2019-02-11T17:36:18.749Z,95707.95
2019-02-11T17:38:48.767Z,95716.68
2019-02-11T17:41:18.709Z,95715.80
2019-02-11T17:43:48.726Z,95715.33
2019-02-11T17:46:18.710Z,95729.23
2019-02-11T17:48:48.696Z,95721.91
2019-02-11T17:51:18.795Z,95718.66
2019-02-11T17:53:48.761Z,95720.69
2019-02-11T17:56:18.675Z,95717.61
2019-02-11T17:58:48.698Z,95728.06
2019-02-11T18:01:18.674Z,95738.77
2019-02-11T18:03:49.749Z,95742.64
2019-02-11T18:06:19.653Z,95743.23
2019-02-11T18:08:49.586Z,95743.61
2019-02-11T18:11:19.940Z,95742.94
2019-02-11T18:13:51.005Z,95742.52
2019-02-11T18:16:20.913Z,95755.48
2019-02-11T18:18:50.859Z,95763.07
2019-02-11T18:21:20.773Z,95757.52
2019-02-11T18:23:50.727Z,95751.53
2019-02-11T18:26:20.568Z,95765.31
2019-02-11T18:28:50.573Z,95770.63
2019-02-11T18:31:20.477Z,95758.23
2019-02-11T18:33:50.437Z,95759.25
2019-02-11T18:36:20.328Z,95762.36
2019-02-11T18:38:50.209Z,95768.65
2019-02-11T18:41:20.245Z,95776.86
2019-02-11T18:43:50.109Z,95766.56
2019-02-11T18:46:20.057Z,95768.47
2019-02-11T18:48:49.916Z,95777.78
2019-02-11T18:51:20.190Z,95769.95
2019-02-11T18:53:50.097Z,95776.61
2019-02-11T18:56:20.082Z,95780.41
2019-02-11T18:58:52.223Z,95786.14
2019-02-11T19:01:22.158Z,95793.05
2019-02-11T19:03:52.074Z,95796.77
2019-02-11T19:06:22.082Z,95802.11
2019-02-11T19:08:51.989Z,95796.22
2019-02-11T19:11:22.200Z,95800.38
2019-02-11T19:13:52.201Z,95800.84
2019-02-11T19:16:22.277Z,95808.31
2019-02-11T19:18:52.316Z,95817.75
2019-02-11T19:21:22.244Z,95824.53
2019-02-11T19:23:52.155Z,95819.27
2019-02-11T19:26:22.169Z,95821.51
2019-02-11T19:28:51.996Z,95843.92
2019-02-11T19:31:21.931Z,95831.03
2019-02-11T19:33:51.843Z,95829.50
2019-02-11T19:36:21.792Z,95846.98
2019-02-11T19:38:51.695Z,95853.80
2019-02-11T19:41:22.536Z,95853.98
2019-02-11T19:43:52.465Z,95849.78
2019-02-11T19:46:22.383Z,95849.20
2019-02-11T19:48:52.373Z,95853.11
2019-02-11T19:51:22.258Z,95856.57
2019-02-11T19:53:52.165Z,95855.33
2019-02-11T19:56:22.191Z,95856.84
2019-02-11T19:58:52.099Z,95859.80
2019-02-11T20:01:21.994Z,95882.11
2019-02-11T20:03:51.906Z,95868.33
2019-02-11T20:06:21.802Z,95880.63
2019-02-11T20:08:51.669Z,95876.13
2019-02-11T20:11:21.632Z,95889.23
2019-02-11T20:13:51.567Z,95899.59
2019-02-11T20:16:21.480Z,95900.86
2019-02-11T20:18:51.346Z,95905.89
2019-02-11T20:21:21.326Z,95911.75
2019-02-11T20:23:51.192Z,95925.91
2019-02-11T20:26:21.105Z,95931.44
2019-02-11T20:28:51.110Z,95926.73
2019-02-11T20:31:21.858Z,95929.77
2019-02-11T20:33:51.831Z,95933.34
2019-02-11T20:36:21.729Z,95935.08
2019-02-11T20:38:51.606Z,95931.73
2019-02-11T20:41:21.500Z,95928.86
2019-02-11T20:43:51.387Z,95935.97
2019-02-11T20:46:21.336Z,95949.18
2019-02-11T20:48:51.229Z,95954.53
2019-02-11T20:51:21.664Z,95937.64
2019-02-11T20:53:51.561Z,95941.02
2019-02-11T20:56:21.588Z,95944.23
2019-02-11T20:58:51.499Z,95935.00
2019-02-11T21:01:21.382Z,95946.84
2019-02-11T21:03:51.254Z,95951.09
2019-02-11T21:06:21.085Z,95947.86
2019-02-11T21:08:50.963Z,95954.28
2019-02-11T21:11:20.785Z,95964.51
2019-02-11T21:13:50.650Z,95982.78
2019-02-11T21:16:20.569Z,95966.09
2019-02-11T21:18:50.439Z,95966.86
2019-02-11T21:21:20.362Z,95961.58
2019-02-11T21:23:50.299Z,95974.03
2019-02-11T21:26:20.186Z,95985.87
2019-02-11T21:28:50.069Z,95983.68
2019-02-11T21:31:20.061Z,95989.72
2019-02-11T21:33:50.037Z,95984.09
2019-02-11T21:36:20.020Z,96006.97
2019-02-11T21:38:50.222Z,95997.31
2019-02-11T21:41:20.230Z,95998.34
2019-02-11T21:43:50.111Z,96011.56
2019-02-11T21:46:19.933Z,96015.37
2019-02-11T21:48:49.869Z,96027.94
2019-02-11T21:51:19.772Z,96028.06
2019-02-11T21:53:49.606Z,96055.99
2019-02-11T21:56:19.520Z,96057.72
2019-02-11T21:58:49.345Z,96063.23
2019-02-11T22:01:19.334Z,96071.05
2019-02-11T22:03:49.234Z,96071.16
2019-02-11T22:06:19.174Z,96076.80
2019-02-11T22:08:49.005Z,96090.48
2019-02-11T22:11:18.957Z,96092.23
2019-02-11T22:13:48.793Z,96086.23
2019-02-11T22:16:18.831Z,96080.63
2019-02-11T22:18:48.650Z,96057.44
2019-02-11T22:21:18.611Z,96061.45
2019-02-11T22:23:48.460Z,96061.42
2019-02-11T22:26:18.598Z,96061.42
2019-02-11T22:28:48.479Z,96067.52
2019-02-11T22:31:18.411Z,96064.07
2019-02-11T22:33:48.395Z,96064.77
2019-02-11T22:36:18.341Z,96059.36
2019-02-11T22:38:48.181Z,96062.12
2019-02-11T22:41:18.165Z,96065.33
2019-02-11T22:43:48.128Z,96059.48
2019-02-11T22:46:18.050Z,96059.16
2019-02-11T22:48:47.983Z,96065.35
2019-02-11T22:51:17.835Z,96058.80
2019-02-11T22:53:47.785Z,96064.55
2019-02-11T22:56:17.656Z,96052.26
2019-02-11T22:58:47.521Z,96050.19
2019-02-11T23:01:17.967Z,96048.94
2019-02-11T23:03:47.927Z,96062.14
2019-02-11T23:06:17.907Z,96048.58
2019-02-11T23:08:47.850Z,96060.17
2019-02-11T23:11:17.961Z,96065.58
2019-02-11T23:13:47.965Z,96073.84
2019-02-11T23:16:17.872Z,96082.80
2019-02-11T23:18:47.818Z,96085.22
2019-02-11T23:21:17.754Z,96086.38
2019-02-11T23:23:47.609Z,96088.64
2019-02-11T23:26:17.557Z,96096.69
2019-02-11T23:28:47.579Z,96100.84
2019-02-11T23:31:17.455Z,96099.22
2019-02-11T23:33:47.444Z,96103.64
2019-02-11T23:36:17.390Z,96101.96
2019-02-11T23:38:47.287Z,96103.57
2019-02-11T23:41:17.275Z,96099.34
2019-02-11T23:43:47.194Z,96102.42
2019-02-11T23:46:17.140Z,96094.63
2019-02-11T23:48:46.959Z,96099.91
2019-02-11T23:51:16.919Z,96109.66
2019-02-11T23:53:46.746Z,96098.08
2019-02-11T23:56:16.690Z,96097.61
2019-02-11T23:58:46.511Z,96101.75
